createdAt,value
2024-02-29T00:01:17.341Z,-1.07
2024-02-29T00:03:44.967Z,-1.07
2024-02-29T00:06:12.738Z,-1.11
2024-02-29T00:08:41.597Z,-1.02
2024-02-29T00:11:09.164Z,-1.08
2024-02-29T00:13:36.788Z,-1.13
2024-02-29T00:16:04.662Z,-1.02
2024-02-29T00:18:32.503Z,-1.01
2024-02-29T00:21:00.303Z,-1.03
2024-02-29T00:23:27.820Z,-1.08
2024-02-29T00:25:57.907Z,-1.08
2024-02-29T00:28:25.453Z,-1.07
2024-02-29T00:30:53.018Z,-1.17
2024-02-29T00:33:20.618Z,-1.12
2024-02-29T00:35:49.684Z,-1.08
2024-02-29T00:38:16.856Z,-1.04
2024-02-29T00:40:44.477Z,-1.07
2024-02-29T00:43:13.494Z,-1.05
2024-02-29T00:45:41.211Z,-1.09
2024-02-29T00:48:09.258Z,-1.05
2024-02-29T00:50:36.820Z,-1.10
2024-02-29T00:53:04.500Z,-1.14
2024-02-29T00:55:32.025Z,-1.13
2024-02-29T00:57:59.602Z,-1.17
2024-02-29T01:00:28.543Z,-1.16
2024-02-29T01:02:56.069Z,-1.21
2024-02-29T01:05:23.667Z,-1.22
2024-02-29T01:07:52.282Z,-1.18
2024-02-29T01:10:20.118Z,-1.13
2024-02-29T01:12:47.990Z,-1.16
2024-02-29T01:15:15.937Z,-1.16
2024-02-29T01:17:46.721Z,-1.17
2024-02-29T01:20:15.141Z,-1.30
2024-02-29T01:22:42.600Z,-1.37
2024-02-29T01:25:11.196Z,-1.25
2024-02-29T01:27:38.875Z,-1.30
2024-02-29T01:30:07.534Z,-1.31
2024-02-29T01:32:37.666Z,-1.34
2024-02-29T01:35:09.896Z,-1.32
2024-02-29T01:37:37.602Z,-1.33
2024-02-29T01:40:06.612Z,-1.37
2024-02-29T01:42:34.956Z,-1.41
2024-02-29T01:45:04.094Z,-1.44
2024-02-29T01:47:31.644Z,-1.42
2024-02-29T01:50:00.710Z,-1.40
2024-02-29T01:52:32.497Z,-1.39
2024-02-29T01:55:00.250Z,-1.45
2024-02-29T01:57:28.772Z,-1.48
2024-02-29T01:59:56.320Z,-1.48
2024-02-29T02:02:23.985Z,-1.46
2024-02-29T02:04:51.805Z,-1.51
2024-02-29T02:07:19.471Z,-1.48
2024-02-29T02:09:48.411Z,-1.40
2024-02-29T02:12:16.124Z,-1.43
2024-02-29T02:14:43.750Z,-1.38
2024-02-29T02:17:12.069Z,-1.40
2024-02-29T02:19:40.868Z,-1.45
2024-02-29T02:22:10.955Z,-1.43
2024-02-29T02:24:38.835Z,-1.45
2024-02-29T02:27:06.471Z,-1.47
2024-02-29T02:29:34.065Z,-1.43
2024-02-29T02:32:01.648Z,-1.45
2024-02-29T02:34:29.199Z,-1.47
2024-02-29T02:36:56.829Z,-1.51
2024-02-29T02:39:25.700Z,-1.57
2024-02-29T02:41:53.276Z,-1.51
2024-02-29T02:44:20.811Z,-1.57
2024-02-29T02:46:48.313Z,-1.63
2024-02-29T02:49:17.026Z,-1.65
2024-02-29T02:51:44.738Z,-1.64
2024-02-29T02:54:12.356Z,-1.64
2024-02-29T02:56:41.185Z,-1.58
2024-02-29T02:59:08.731Z,-1.60
2024-02-29T03:01:36.276Z,-1.65
2024-02-29T03:04:05.376Z,-1.71
2024-02-29T03:06:33.067Z,-1.69
2024-02-29T03:09:00.586Z,-1.61
2024-02-29T03:11:28.235Z,-1.60
2024-02-29T03:13:57.139Z,-1.62
2024-02-29T03:16:25.162Z,-1.69
2024-02-29T03:18:52.722Z,-1.63
2024-02-29T03:21:20.515Z,-1.54
2024-02-29T03:23:48.478Z,-1.61
2024-02-29T03:26:16.320Z,-1.71
2024-02-29T03:28:44.041Z,-1.68
2024-02-29T03:31:14.447Z,-1.68
2024-02-29T03:33:42.654Z,-1.67
2024-02-29T03:36:10.667Z,-1.76
2024-02-29T03:38:38.686Z,-1.75
2024-02-29T03:41:07.983Z,-1.77
2024-02-29T03:43:36.392Z,-1.74
2024-02-29T03:46:04.058Z,-1.75
2024-02-29T03:48:33.224Z,-1.78
2024-02-29T03:51:01.088Z,-1.89
2024-02-29T03:53:28.680Z,-1.89
2024-02-29T03:55:56.237Z,-1.88
2024-02-29T03:58:23.832Z,-1.86
2024-02-29T04:00:51.474Z,-1.93
2024-02-29T04:03:19.326Z,-1.96
2024-02-29T04:05:48.251Z,-1.92
2024-02-29T04:08:15.813Z,-1.91
2024-02-29T04:10:47.182Z,-2.00
2024-02-29T04:13:14.872Z,-2.01
2024-02-29T04:15:42.565Z,-2.03
2024-02-29T04:18:10.146Z,-2.01
2024-02-29T04:20:37.766Z,-2.02
2024-02-29T04:23:06.714Z,-2.02
2024-02-29T04:25:35.136Z,-2.01
2024-02-29T04:28:03.131Z,-1.98
2024-02-29T04:30:30.968Z,-2.05
2024-02-29T04:32:58.673Z,-2.06
2024-02-29T04:35:26.288Z,-2.05
2024-02-29T04:37:53.931Z,-2.05
2024-02-29T04:40:22.859Z,-2.07
2024-02-29T04:42:50.439Z,-2.08
2024-02-29T04:45:18.060Z,-2.18
2024-02-29T04:47:45.770Z,-2.18
2024-02-29T04:50:13.389Z,-2.23
2024-02-29T04:52:40.930Z,-2.23
2024-02-29T04:55:09.354Z,-2.10
2024-02-29T04:57:38.293Z,-2.07
2024-02-29T05:00:07.493Z,-2.05
2024-02-29T05:02:35.329Z,-2.11
2024-02-29T05:05:02.857Z,-2.08
2024-02-29T05:07:30.452Z,-2.09
2024-02-29T05:09:58.087Z,-2.08
2024-02-29T05:12:27.939Z,-2.08
2024-02-29T05:15:00.497Z,-2.07
2024-02-29T05:17:28.185Z,-2.08
2024-02-29T05:19:57.308Z,-2.05
2024-02-29T05:22:24.944Z,-2.00
2024-02-29T05:24:52.581Z,-2.00
2024-02-29T05:27:20.120Z,-2.09
2024-02-29T05:29:47.653Z,-2.05
2024-02-29T05:32:18.756Z,-2.02
2024-02-29T05:34:47.190Z,-2.01
2024-02-29T05:37:15.215Z,-2.07
2024-02-29T05:39:43.503Z,-2.12
2024-02-29T05:42:11.099Z,-2.14
2024-02-29T05:44:38.854Z,-2.11
2024-02-29T05:47:06.619Z,-2.14
2024-02-29T05:49:35.447Z,-1.98
2024-02-29T05:52:03.076Z,-2.00
2024-02-29T05:54:30.904Z,-1.98
2024-02-29T05:56:59.683Z,-1.97
2024-02-29T05:59:28.397Z,-1.93
2024-02-29T06:01:56.098Z,-1.95
2024-02-29T06:04:23.847Z,-1.99
2024-02-29T06:06:52.731Z,-1.89
2024-02-29T06:09:20.229Z,-1.91
2024-02-29T06:11:48.802Z,-1.95
2024-02-29T06:14:16.331Z,-2.02
2024-02-29T06:16:43.769Z,-1.97
2024-02-29T06:19:11.417Z,-1.93
2024-02-29T06:21:39.000Z,-1.88
2024-02-29T06:24:08.636Z,-1.84
2024-02-29T06:26:36.323Z,-1.83
2024-02-29T06:29:03.894Z,-1.89
2024-02-29T06:31:31.381Z,-1.82
2024-02-29T06:33:59.251Z,-1.79
2024-02-29T06:36:26.881Z,-1.79
2024-02-29T06:38:54.392Z,-1.75
2024-02-29T06:41:23.215Z,-1.74
2024-02-29T06:43:50.819Z,-1.82
2024-02-29T06:46:18.911Z,-1.69
2024-02-29T06:48:46.554Z,-1.72
2024-02-29T06:51:14.064Z,-1.70
2024-02-29T06:53:41.608Z,-1.71
2024-02-29T06:56:09.137Z,-1.63
2024-02-29T06:58:38.162Z,-1.66
2024-02-29T07:01:07.397Z,-1.63
2024-02-29T07:03:35.154Z,-1.65
2024-02-29T07:06:03.871Z,-1.62
2024-02-29T07:08:35.444Z,-1.60
2024-02-29T07:11:05.006Z,-1.55
2024-02-29T07:13:33.238Z,-1.47
2024-02-29T07:16:26.936Z,-1.42
2024-02-29T07:18:54.711Z,-1.45
2024-02-29T07:21:22.294Z,-1.43
2024-02-29T07:23:50.825Z,-1.38
2024-02-29T07:26:19.264Z,-1.38
2024-02-29T07:28:47.144Z,-1.26
2024-02-29T07:31:14.747Z,-1.21
2024-02-29T07:33:44.077Z,-1.22
2024-02-29T07:36:12.232Z,-1.18
2024-02-29T07:38:40.189Z,-1.18
2024-02-29T07:41:08.024Z,-1.08
2024-02-29T07:43:35.696Z,-0.98
2024-02-29T07:46:03.667Z,-0.88
2024-02-29T07:48:32.406Z,-0.76
2024-02-29T07:51:01.640Z,-0.51
2024-02-29T07:53:30.589Z,-0.33
2024-02-29T07:55:58.649Z,-0.23
2024-02-29T07:58:27.516Z,-0.15
2024-02-29T08:00:55.506Z,-0.13
2024-02-29T08:03:23.270Z,-0.19
2024-02-29T08:05:50.906Z,-0.14
2024-02-29T08:08:20.130Z,-0.04
2024-02-29T08:10:47.861Z,0.02
2024-02-29T08:13:15.710Z,0.03
2024-02-29T08:15:44.338Z,0.04
2024-02-29T08:18:12.715Z,0.06
2024-02-29T08:20:40.659Z,0.11
2024-02-29T08:23:08.579Z,0.17
2024-02-29T08:25:38.011Z,0.27
2024-02-29T08:28:06.771Z,0.32
2024-02-29T08:30:34.575Z,0.42
2024-02-29T08:33:02.663Z,0.47
2024-02-29T08:35:30.598Z,0.52
2024-02-29T08:37:58.414Z,0.62
2024-02-29T08:40:26.609Z,0.65
2024-02-29T08:42:55.899Z,0.70
2024-02-29T08:45:24.135Z,0.81
2024-02-29T08:47:52.041Z,0.88
2024-02-29T08:50:19.779Z,0.96
2024-02-29T08:52:48.347Z,1.02
2024-02-29T08:55:16.104Z,1.04
2024-02-29T08:57:44.257Z,1.04
2024-02-29T09:00:17.387Z,1.13
2024-02-29T09:02:46.151Z,1.06
2024-02-29T09:05:14.013Z,1.23
2024-02-29T09:07:41.701Z,1.26
2024-02-29T09:10:10.876Z,1.33
2024-02-29T09:12:38.665Z,1.33
2024-02-29T09:15:06.919Z,1.42
2024-02-29T09:17:35.865Z,1.52
2024-02-29T09:20:06.000Z,1.63
2024-02-29T09:22:33.718Z,1.74
2024-02-29T09:25:01.436Z,1.83
2024-02-29T09:27:29.271Z,1.74
2024-02-29T09:29:58.560Z,1.71
2024-02-29T09:32:27.028Z,1.77
2024-02-29T09:34:56.014Z,1.92
2024-02-29T09:37:23.811Z,1.97
2024-02-29T09:39:51.898Z,1.99
2024-02-29T09:42:19.926Z,2.06
2024-02-29T09:44:49.169Z,2.17
2024-02-29T09:47:20.337Z,2.29
2024-02-29T09:49:51.197Z,2.36
2024-02-29T09:52:25.333Z,2.49
2024-02-29T09:54:54.132Z,2.60
2024-02-29T09:57:22.573Z,2.68
2024-02-29T09:59:50.598Z,2.74
2024-02-29T10:02:18.436Z,2.90
2024-02-29T10:04:47.376Z,3.03
2024-02-29T10:07:15.797Z,3.03
2024-02-29T10:09:45.652Z,3.22
2024-02-29T10:12:18.584Z,3.38
2024-02-29T10:14:47.304Z,3.58
2024-02-29T10:17:14.903Z,3.82
2024-02-29T10:19:42.767Z,4.35
2024-02-29T10:22:10.405Z,4.92
2024-02-29T10:24:38.121Z,5.40
2024-02-29T10:27:07.248Z,5.97
2024-02-29T10:29:34.982Z,6.38
2024-02-29T10:32:02.552Z,6.73
2024-02-29T10:34:30.154Z,7.19
2024-02-29T10:36:57.924Z,7.58
2024-02-29T10:39:26.826Z,7.87
2024-02-29T10:41:56.900Z,8.16
2024-02-29T10:44:32.191Z,8.63
2024-02-29T10:47:04.123Z,9.05
2024-02-29T10:49:37.958Z,9.56
2024-02-29T10:52:12.898Z,9.96
2024-02-29T10:54:46.747Z,10.22
2024-02-29T10:57:17.213Z,10.63
2024-02-29T10:59:52.301Z,10.94
2024-02-29T11:02:21.902Z,11.30
2024-02-29T11:04:49.923Z,11.66
2024-02-29T11:07:17.922Z,11.97
2024-02-29T11:09:45.782Z,12.27
2024-02-29T11:12:15.646Z,12.77
2024-02-29T11:14:47.837Z,13.14
2024-02-29T11:17:16.727Z,13.26
2024-02-29T11:19:52.114Z,13.58
2024-02-29T11:22:34.452Z,13.74
2024-02-29T11:25:10.786Z,13.76
2024-02-29T11:27:39.486Z,14.16
2024-02-29T11:30:19.263Z,14.41
2024-02-29T11:32:46.961Z,14.39
2024-02-29T11:35:15.873Z,14.56
2024-02-29T11:37:45.520Z,14.97
2024-02-29T11:43:02.725Z,15.19
2024-02-29T11:45:32.482Z,15.46
2024-02-29T11:48:01.467Z,15.74
2024-02-29T11:50:30.734Z,15.87
2024-02-29T11:53:02.195Z,16.00
2024-02-29T11:55:32.126Z,16.19
2024-02-29T11:58:00.780Z,16.47
2024-02-29T12:00:29.435Z,16.23
2024-02-29T12:02:58.911Z,16.69
2024-02-29T12:05:26.602Z,17.07
2024-02-29T12:07:55.649Z,17.41
2024-02-29T12:10:25.069Z,17.43
2024-02-29T12:12:52.882Z,17.77
2024-02-29T12:15:23.591Z,17.85
2024-02-29T12:17:51.298Z,17.97
2024-02-29T12:20:20.246Z,18.18
2024-02-29T12:22:50.224Z,18.20
2024-02-29T12:25:18.813Z,18.01
2024-02-29T12:27:47.156Z,17.98
2024-02-29T12:30:15.497Z,18.22
2024-02-29T12:32:44.374Z,18.41
2024-02-29T12:35:13.930Z,18.54
2024-02-29T12:37:44.392Z,18.57
2024-02-29T12:40:14.258Z,18.43
2024-02-29T12:42:44.020Z,18.26
2024-02-29T12:45:15.979Z,18.48
2024-02-29T12:47:45.794Z,18.88
2024-02-29T12:50:13.590Z,18.62
2024-02-29T12:52:41.262Z,18.75
2024-02-29T12:55:11.484Z,19.08
2024-02-29T12:57:39.558Z,18.68
2024-02-29T13:00:09.773Z,18.16
2024-02-29T13:02:48.347Z,18.40
2024-02-29T13:05:16.398Z,18.21
2024-02-29T13:07:44.292Z,18.41
2024-02-29T13:10:13.618Z,18.40
2024-02-29T13:12:42.422Z,18.61
2024-02-29T13:15:11.158Z,19.04
2024-02-29T13:17:40.234Z,18.77
2024-02-29T13:20:08.762Z,18.52
2024-02-29T13:22:36.772Z,18.06
2024-02-29T13:25:05.659Z,18.11
2024-02-29T13:27:35.253Z,17.93
2024-02-29T13:30:04.300Z,17.36
2024-02-29T13:32:33.276Z,16.83
2024-02-29T13:35:02.563Z,16.54
2024-02-29T13:37:30.884Z,16.19
2024-02-29T13:39:58.562Z,15.41
2024-02-29T13:42:26.322Z,14.58
2024-02-29T13:44:55.653Z,13.98
2024-02-29T13:47:23.387Z,13.63
2024-02-29T13:49:51.152Z,12.98
2024-02-29T13:52:19.310Z,12.53
2024-02-29T13:54:47.884Z,11.98
2024-02-29T13:57:15.849Z,11.48
2024-02-29T13:59:44.463Z,11.13
2024-02-29T14:02:13.559Z,10.91
2024-02-29T14:04:43.599Z,10.68
2024-02-29T14:07:11.352Z,10.44
2024-02-29T14:09:39.278Z,10.22
2024-02-29T14:12:07.068Z,9.87
2024-02-29T14:14:34.746Z,9.67
2024-02-29T14:17:02.477Z,9.54
2024-02-29T14:19:33.302Z,9.54
2024-02-29T14:22:01.701Z,9.45
2024-02-29T14:24:29.418Z,9.26
2024-02-29T14:26:57.496Z,9.14
2024-02-29T14:29:25.289Z,9.12
2024-02-29T14:31:53.011Z,9.18
2024-02-29T14:34:21.455Z,9.00
2024-02-29T14:36:50.662Z,8.87
2024-02-29T14:39:21.234Z,8.88
2024-02-29T14:41:49.394Z,8.70
2024-02-29T14:44:17.139Z,8.76
2024-02-29T14:46:45.189Z,8.76
2024-02-29T14:49:15.934Z,8.59
2024-02-29T14:51:43.629Z,8.50
2024-02-29T14:54:12.764Z,8.27
2024-02-29T14:56:40.673Z,8.19
2024-02-29T14:59:09.205Z,8.06
2024-02-29T15:01:36.874Z,8.08
2024-02-29T15:04:04.666Z,8.10
2024-02-29T15:06:32.407Z,8.18
2024-02-29T15:08:59.993Z,8.18
2024-02-29T15:11:29.257Z,8.22
2024-02-29T15:13:56.900Z,8.18
2024-02-29T15:16:24.643Z,8.12
2024-02-29T15:18:52.580Z,8.11
2024-02-29T15:21:20.759Z,8.05
2024-02-29T15:23:49.332Z,7.99
2024-02-29T15:26:17.247Z,7.97
2024-02-29T15:28:49.783Z,8.01
2024-02-29T15:31:17.940Z,8.01
2024-02-29T15:33:46.684Z,7.99
2024-02-29T15:36:14.595Z,7.91
2024-02-29T15:38:54.685Z,7.87
2024-02-29T15:41:22.457Z,7.74
2024-02-29T15:43:53.901Z,7.82
2024-02-29T15:46:21.565Z,7.85
2024-02-29T15:48:49.288Z,7.85
2024-02-29T15:51:16.914Z,7.88
2024-02-29T15:53:45.101Z,7.69
2024-02-29T15:56:15.315Z,7.69
2024-02-29T15:58:43.373Z,7.71
2024-02-29T16:01:12.365Z,7.76
2024-02-29T16:03:40.048Z,7.75
2024-02-29T16:06:09.628Z,7.69
2024-02-29T16:08:37.226Z,7.59
2024-02-29T16:11:06.421Z,7.46
2024-02-29T16:13:35.909Z,7.50
2024-02-29T16:16:04.376Z,7.40
2024-02-29T16:18:33.451Z,7.42
2024-02-29T16:21:03.060Z,7.49
2024-02-29T16:23:30.716Z,7.40
2024-02-29T16:25:58.361Z,7.28
2024-02-29T16:28:27.071Z,7.25
2024-02-29T16:30:54.939Z,7.16
2024-02-29T16:33:22.860Z,7.19
2024-02-29T16:35:51.952Z,7.19
2024-02-29T16:38:20.224Z,7.06
2024-02-29T16:40:48.178Z,7.01
2024-02-29T16:43:21.420Z,6.95
2024-02-29T16:45:49.429Z,7.05
2024-02-29T16:48:17.470Z,7.02
2024-02-29T16:50:46.291Z,6.97
2024-02-29T16:53:17.649Z,7.03
2024-02-29T16:55:45.206Z,7.03
2024-02-29T16:58:13.864Z,6.91
2024-02-29T17:00:41.587Z,6.83
2024-02-29T17:03:09.280Z,6.83
2024-02-29T17:05:36.820Z,6.69
2024-02-29T17:08:05.555Z,6.64
2024-02-29T17:10:34.435Z,6.56
2024-02-29T17:13:02.096Z,6.51
2024-02-29T17:15:29.658Z,6.52
2024-02-29T17:17:57.247Z,6.53
2024-02-29T17:20:25.096Z,6.53
2024-02-29T17:22:52.668Z,6.54
2024-02-29T17:25:20.255Z,6.52
2024-02-29T17:27:49.305Z,6.54
2024-02-29T17:30:17.464Z,6.52
2024-02-29T17:32:47.459Z,6.57
2024-02-29T17:35:16.511Z,6.56
2024-02-29T17:37:44.876Z,6.54
2024-02-29T17:40:13.609Z,6.56
2024-02-29T17:42:41.175Z,6.54
2024-02-29T17:45:11.434Z,6.62
2024-02-29T17:47:41.522Z,6.65
2024-02-29T17:50:16.478Z,6.70
2024-02-29T17:52:47.263Z,6.72
2024-02-29T17:55:15.503Z,6.74
2024-02-29T17:57:43.875Z,6.56
2024-02-29T18:00:15.283Z,6.58
2024-02-29T18:02:44.759Z,6.51
2024-02-29T18:05:12.705Z,6.53
2024-02-29T18:07:47.497Z,6.61
2024-02-29T18:10:22.906Z,6.62
2024-02-29T18:12:50.704Z,6.63
2024-02-29T18:15:19.637Z,6.62
2024-02-29T18:17:47.189Z,6.59
2024-02-29T18:20:17.845Z,6.65
2024-02-29T18:22:45.727Z,6.60
2024-02-29T18:25:13.662Z,6.56
2024-02-29T18:31:55.374Z,6.55
2024-02-29T18:34:22.851Z,6.50
2024-02-29T18:36:50.422Z,6.49
2024-02-29T18:39:18.018Z,6.47
2024-02-29T18:41:45.514Z,6.33
2024-02-29T18:44:14.386Z,6.33
2024-02-29T18:46:43.107Z,6.42
2024-02-29T18:49:12.356Z,6.43
2024-02-29T18:51:44.134Z,6.39
2024-02-29T18:54:11.648Z,6.28
2024-02-29T18:56:41.623Z,6.29
2024-02-29T18:59:09.875Z,6.36
2024-02-29T19:01:37.876Z,6.36
2024-02-29T19:04:05.838Z,6.29
2024-02-29T19:06:34.734Z,6.24
2024-02-29T19:09:02.429Z,6.21
2024-02-29T19:11:30.035Z,6.22
2024-02-29T19:13:57.985Z,6.24
2024-02-29T19:16:27.007Z,6.05
2024-02-29T19:18:54.702Z,6.13
2024-02-29T19:21:22.547Z,6.22
2024-02-29T19:23:51.399Z,6.30
2024-02-29T19:26:19.008Z,6.32
2024-02-29T19:28:46.497Z,6.35
2024-02-29T19:31:16.433Z,6.33
2024-02-29T19:33:44.642Z,6.24
2024-02-29T19:36:16.112Z,6.15
2024-02-29T19:38:43.786Z,6.17
2024-02-29T19:41:12.938Z,6.24
2024-02-29T19:43:40.531Z,6.15
2024-02-29T19:46:08.244Z,6.07
2024-02-29T19:48:36.328Z,6.01
2024-02-29T19:51:08.157Z,6.11
2024-02-29T19:53:36.846Z,6.12
2024-02-29T19:56:04.787Z,6.13
2024-02-29T19:58:33.675Z,6.03
2024-02-29T20:01:02.229Z,6.01
2024-02-29T20:03:30.175Z,6.03
2024-02-29T20:05:58.876Z,6.04
2024-02-29T20:08:26.518Z,6.12
2024-02-29T20:10:54.042Z,6.08
2024-02-29T20:13:21.842Z,6.09
2024-02-29T20:15:51.098Z,6.06
2024-02-29T20:18:19.183Z,6.05
2024-02-29T20:20:46.752Z,5.96
2024-02-29T20:23:14.378Z,6.04
2024-02-29T20:25:44.426Z,6.01
2024-02-29T20:28:11.966Z,5.92
2024-02-29T20:30:40.061Z,6.08
2024-02-29T20:33:08.954Z,6.16
2024-02-29T20:35:36.644Z,6.15
2024-02-29T20:38:04.374Z,6.16
2024-02-29T20:40:31.925Z,6.12
2024-02-29T20:42:59.482Z,6.11
2024-02-29T20:45:26.963Z,6.07
2024-02-29T20:47:54.485Z,5.98
2024-02-29T20:50:23.698Z,5.99
2024-02-29T20:52:51.287Z,6.02
2024-02-29T20:55:19.086Z,5.92
2024-02-29T20:57:46.766Z,5.90
2024-02-29T21:00:15.368Z,5.91
2024-02-29T21:02:42.899Z,6.03
2024-02-29T21:05:10.452Z,5.93
2024-02-29T21:07:42.163Z,5.89
2024-02-29T21:10:12.024Z,5.88
2024-02-29T21:12:39.845Z,5.88
2024-02-29T21:15:08.446Z,5.82
2024-02-29T21:17:36.023Z,5.85
2024-02-29T21:20:03.779Z,5.86
2024-02-29T21:22:31.339Z,5.84
2024-02-29T21:25:02.531Z,5.86
2024-02-29T21:27:30.144Z,5.86
2024-02-29T21:29:57.645Z,5.81
2024-02-29T21:32:25.378Z,5.81
2024-02-29T21:34:52.958Z,5.92
2024-02-29T21:37:20.485Z,5.90
2024-02-29T21:39:48.125Z,5.92
2024-02-29T21:42:17.028Z,5.94
2024-02-29T21:44:46.432Z,5.95
2024-02-29T21:47:13.924Z,5.94
2024-02-29T21:49:41.795Z,6.02
2024-02-29T21:52:09.403Z,5.98
2024-02-29T21:54:40.001Z,5.91
2024-02-29T21:57:07.523Z,5.79
2024-02-29T21:59:36.359Z,5.81
2024-02-29T22:02:04.147Z,5.88
2024-02-29T22:04:31.755Z,5.94
2024-02-29T22:06:59.372Z,5.99
2024-02-29T22:09:26.863Z,5.90
2024-02-29T22:11:55.350Z,5.94
2024-02-29T22:14:22.848Z,5.90
2024-02-29T22:16:51.654Z,5.83
2024-02-29T22:19:19.416Z,5.81
2024-02-29T22:21:46.962Z,5.81
2024-02-29T22:24:16.787Z,5.83
2024-02-29T22:26:44.601Z,5.78
2024-02-29T22:29:13.220Z,5.77
2024-02-29T22:31:41.926Z,5.83
2024-02-29T22:34:11.924Z,5.86
2024-02-29T22:36:39.498Z,5.78
2024-02-29T22:39:07.118Z,5.78
2024-02-29T22:41:38.239Z,5.76
2024-02-29T22:44:12.690Z,5.74
2024-02-29T22:46:40.300Z,5.69
2024-02-29T22:49:07.844Z,5.71
2024-02-29T22:51:36.684Z,5.72
2024-02-29T22:54:04.319Z,5.69
2024-02-29T22:56:31.873Z,5.71
2024-02-29T22:58:59.366Z,5.65
2024-02-29T23:01:28.797Z,5.51
2024-02-29T23:03:56.440Z,5.43
2024-02-29T23:06:23.987Z,5.42
2024-02-29T23:08:52.737Z,5.39
2024-02-29T23:11:20.220Z,5.36
2024-02-29T23:13:48.025Z,5.35
2024-02-29T23:16:15.656Z,5.30
2024-02-29T23:18:43.138Z,5.32
2024-02-29T23:21:10.917Z,5.29
2024-02-29T23:23:38.424Z,5.30
2024-02-29T23:26:08.133Z,5.33
2024-02-29T23:28:35.973Z,5.34
2024-02-29T23:31:03.533Z,5.29
2024-02-29T23:33:31.046Z,5.28
2024-02-29T23:35:58.533Z,5.25
2024-02-29T23:38:26.008Z,5.17
2024-02-29T23:40:53.488Z,5.25
2024-02-29T23:43:22.369Z,5.27
2024-02-29T23:45:49.907Z,5.28
2024-02-29T23:48:17.792Z,5.29
2024-02-29T23:50:45.597Z,5.26
2024-02-29T23:53:13.174Z,5.27
2024-02-29T23:55:40.773Z,5.29
2024-02-29T23:58:08.274Z,5.25
